createdAt,value
2022-10-30T00:01:24.852Z,12.97
2022-10-30T00:03:53.882Z,12.97
2022-10-30T00:06:22.763Z,12.96
2022-10-30T00:08:51.239Z,12.97
2022-10-30T00:11:19.794Z,12.98
2022-10-30T00:13:49.623Z,12.99
2022-10-30T00:16:18.484Z,12.97
2022-10-30T00:18:47.109Z,12.88
2022-10-30T00:21:17.604Z,12.95
2022-10-30T00:23:51.132Z,12.97
2022-10-30T00:26:21.001Z,12.99
2022-10-30T00:28:52.821Z,13.00
2022-10-30T00:31:21.954Z,12.97
2022-10-30T00:33:51.291Z,12.79
2022-10-30T00:36:20.083Z,13.03
2022-10-30T00:38:48.668Z,12.99
2022-10-30T00:41:18.574Z,12.97
2022-10-30T00:43:47.444Z,12.95
2022-10-30T00:46:22.725Z,12.97
2022-10-30T00:48:56.151Z,12.97
2022-10-30T00:51:25.297Z,12.93
2022-10-30T00:53:55.156Z,12.93
2022-10-30T00:56:24.910Z,12.84
2022-10-30T00:58:55.381Z,12.82
2022-10-30T01:01:29.580Z,12.85
2022-10-30T01:04:01.652Z,12.84
2022-10-30T01:06:33.739Z,12.86
2022-10-30T01:09:04.009Z,12.90
2022-10-30T01:11:33.048Z,12.90
2022-10-30T01:14:05.603Z,12.95
2022-10-30T01:16:55.993Z,12.98
2022-10-30T01:19:38.033Z,12.99
2022-10-30T01:22:20.713Z,12.97
2022-10-30T01:25:04.325Z,12.95
2022-10-30T01:27:41.492Z,12.93
2022-10-30T01:30:23.952Z,12.93
2022-10-30T01:33:07.981Z,12.95
2022-10-30T01:35:45.752Z,12.91
2022-10-30T01:38:20.939Z,12.91
2022-10-30T01:40:53.672Z,12.91
2022-10-30T01:43:22.492Z,12.89
2022-10-30T01:46:14.350Z,12.89
2022-10-30T01:49:06.112Z,12.89
2022-10-30T01:51:47.665Z,12.86
2022-10-30T01:54:23.421Z,12.77
2022-10-30T01:57:03.063Z,12.84
2022-10-30T01:59:36.010Z,12.81
2022-10-30T02:02:05.842Z,12.81
2022-10-30T02:04:36.333Z,12.80
2022-10-30T02:07:05.997Z,12.80
2022-10-30T02:09:41.684Z,12.82
2022-10-30T02:12:10.824Z,12.84
2022-10-30T02:14:45.283Z,12.81
2022-10-30T02:17:14.772Z,12.83
2022-10-30T02:19:45.023Z,12.85
2022-10-30T02:22:15.048Z,12.85
2022-10-30T02:24:45.845Z,12.87
2022-10-30T02:27:15.172Z,12.87
2022-10-30T02:29:43.760Z,12.77
2022-10-30T02:32:12.182Z,12.85
2022-10-30T02:34:40.921Z,12.86
2022-10-30T02:37:10.270Z,12.83
2022-10-30T02:39:42.333Z,12.80
2022-10-30T02:42:11.803Z,12.71
2022-10-30T02:44:41.342Z,12.78
2022-10-30T02:47:10.050Z,12.77
2022-10-30T02:49:38.898Z,12.72
2022-10-30T02:52:09.137Z,12.75
2022-10-30T02:54:38.150Z,12.77
2022-10-30T02:57:08.172Z,12.74
2022-10-30T02:59:36.796Z,12.74
2022-10-30T03:02:05.269Z,12.75
2022-10-30T03:04:34.384Z,12.74
2022-10-30T03:07:02.864Z,12.76
2022-10-30T03:09:31.411Z,12.76
2022-10-30T03:11:59.991Z,12.72
2022-10-30T03:14:29.861Z,12.70
2022-10-30T03:16:58.395Z,12.70
2022-10-30T03:19:27.120Z,12.68
2022-10-30T03:21:56.608Z,12.67
2022-10-30T03:24:25.166Z,12.66
2022-10-30T03:26:54.184Z,12.65
2022-10-30T03:29:22.724Z,12.41
2022-10-30T03:31:52.636Z,12.61
2022-10-30T03:34:23.051Z,12.64
2022-10-30T03:36:51.864Z,12.61
2022-10-30T03:39:20.286Z,12.63
2022-10-30T03:41:49.292Z,12.64
2022-10-30T03:44:19.564Z,12.68
2022-10-30T03:46:48.292Z,12.66
2022-10-30T03:49:44.456Z,12.65
2022-10-30T03:52:16.214Z,12.64
2022-10-30T03:54:45.216Z,12.65
2022-10-30T03:57:16.963Z,12.63
2022-10-30T04:00:00.245Z,12.60
2022-10-30T04:02:39.670Z,12.58
2022-10-30T04:05:11.791Z,12.55
2022-10-30T04:07:40.615Z,12.52
2022-10-30T04:10:10.954Z,12.44
2022-10-30T04:12:39.735Z,12.38
2022-10-30T04:15:10.243Z,12.35
2022-10-30T04:17:39.364Z,12.34
2022-10-30T04:20:09.402Z,12.35
2022-10-30T04:22:39.502Z,12.34
2022-10-30T04:25:08.634Z,12.31
2022-10-30T04:27:41.450Z,12.32
2022-10-30T04:30:12.937Z,12.31
2022-10-30T04:32:48.074Z,12.31
2022-10-30T04:35:21.557Z,12.33
2022-10-30T04:37:55.644Z,12.23
2022-10-30T04:40:25.694Z,12.30
2022-10-30T04:42:59.402Z,12.29
2022-10-30T04:45:28.374Z,12.28
2022-10-30T04:48:03.107Z,12.28
2022-10-30T04:50:34.073Z,12.27
2022-10-30T04:53:06.414Z,12.26
2022-10-30T04:55:35.333Z,12.27
2022-10-30T04:58:04.508Z,12.24
2022-10-30T05:00:37.324Z,12.20
2022-10-30T05:03:20.367Z,12.17
2022-10-30T05:05:50.369Z,12.17
2022-10-30T05:08:20.989Z,12.20
2022-10-30T05:10:49.904Z,12.19
2022-10-30T05:13:18.573Z,12.18
2022-10-30T05:15:47.484Z,12.17
2022-10-30T05:18:16.407Z,12.15
2022-10-30T05:20:48.342Z,12.12
2022-10-30T05:23:17.032Z,12.09
2022-10-30T05:25:47.047Z,12.08
2022-10-30T05:28:17.435Z,12.07
2022-10-30T05:30:54.044Z,12.00
2022-10-30T05:33:43.995Z,11.97
2022-10-30T05:36:12.995Z,11.97
2022-10-30T05:38:42.433Z,11.99
2022-10-30T05:41:18.754Z,12.01
2022-10-30T05:43:47.407Z,12.05
2022-10-30T05:46:16.095Z,12.05
2022-10-30T05:48:45.611Z,11.94
2022-10-30T05:51:14.083Z,12.04
2022-10-30T05:53:50.043Z,12.03
2022-10-30T05:56:22.104Z,12.03
2022-10-30T05:58:51.435Z,12.05
2022-10-30T06:01:20.751Z,12.04
2022-10-30T06:03:53.173Z,11.81
2022-10-30T06:06:22.272Z,12.04
2022-10-30T06:08:52.164Z,12.02
2022-10-30T06:11:45.235Z,12.02
2022-10-30T06:14:15.195Z,12.02
2022-10-30T06:16:50.637Z,12.03
2022-10-30T06:19:19.328Z,12.05
2022-10-30T06:21:51.227Z,12.06
2022-10-30T06:24:33.475Z,12.06
2022-10-30T06:27:20.988Z,12.02
2022-10-30T06:29:49.854Z,12.00
2022-10-30T06:32:18.280Z,12.03
2022-10-30T06:34:47.560Z,12.05
2022-10-30T06:37:18.591Z,12.08
2022-10-30T06:39:47.444Z,12.09
2022-10-30T06:42:43.698Z,12.12
2022-10-30T06:45:25.626Z,12.11
2022-10-30T06:47:54.147Z,12.14
2022-10-30T06:50:24.648Z,12.14
2022-10-30T06:52:55.835Z,12.20
2022-10-30T06:55:24.395Z,12.18
2022-10-30T06:58:14.628Z,12.10
2022-10-30T07:00:57.781Z,12.03
2022-10-30T07:03:37.458Z,12.10
2022-10-30T07:06:06.554Z,12.13
2022-10-30T07:08:35.440Z,12.09
2022-10-30T07:11:03.994Z,12.11
2022-10-30T07:13:44.920Z,12.12
2022-10-30T07:16:31.195Z,12.19
2022-10-30T07:19:02.152Z,12.18
2022-10-30T07:21:35.617Z,12.14
2022-10-30T07:24:08.307Z,12.14
2022-10-30T07:26:52.198Z,12.14
2022-10-30T07:29:35.058Z,12.18
2022-10-30T07:32:14.765Z,12.19
2022-10-30T07:34:54.108Z,12.20
2022-10-30T07:37:31.055Z,12.20
2022-10-30T07:40:08.633Z,12.16
2022-10-30T07:42:57.734Z,12.24
2022-10-30T07:45:48.714Z,12.27
2022-10-30T07:48:23.108Z,12.25
2022-10-30T07:51:03.220Z,12.33
2022-10-30T07:53:32.038Z,12.32
2022-10-30T07:56:00.987Z,12.31
2022-10-30T07:58:45.227Z,12.35
2022-10-30T08:01:26.883Z,12.39
2022-10-30T08:03:59.350Z,12.44
2022-10-30T08:06:32.178Z,12.46
2022-10-30T08:09:00.802Z,12.49
2022-10-30T08:11:30.141Z,12.49
2022-10-30T08:14:00.995Z,12.47
2022-10-30T08:16:31.010Z,12.46
2022-10-30T08:18:59.792Z,12.48
2022-10-30T08:21:29.901Z,12.50
2022-10-30T08:24:01.472Z,12.46
2022-10-30T08:26:32.558Z,12.54
2022-10-30T08:29:01.191Z,12.56
2022-10-30T08:31:33.749Z,12.55
2022-10-30T08:34:05.610Z,12.54
2022-10-30T08:36:34.102Z,12.52
2022-10-30T08:39:05.213Z,12.48
2022-10-30T08:41:45.110Z,12.51
2022-10-30T08:44:14.143Z,12.56
2022-10-30T08:46:55.070Z,12.62
2022-10-30T08:49:26.113Z,12.63
2022-10-30T08:51:58.634Z,12.66
2022-10-30T08:54:28.649Z,12.65
2022-10-30T08:56:57.465Z,12.62
2022-10-30T08:59:26.496Z,12.62
2022-10-30T09:02:00.505Z,12.61
2022-10-30T09:04:39.980Z,12.64
2022-10-30T09:07:20.380Z,12.66
2022-10-30T09:10:11.861Z,12.66
2022-10-30T09:12:40.978Z,12.63
2022-10-30T09:15:10.256Z,12.65
2022-10-30T09:17:57.934Z,12.68
2022-10-30T09:20:27.237Z,12.68
2022-10-30T09:22:55.912Z,12.69
2022-10-30T09:25:24.990Z,12.65
2022-10-30T09:28:08.727Z,12.63
2022-10-30T09:30:57.359Z,12.58
2022-10-30T09:33:30.009Z,12.54
2022-10-30T09:36:22.374Z,12.53
2022-10-30T09:38:51.458Z,12.58
2022-10-30T09:41:48.500Z,12.61
2022-10-30T09:44:33.936Z,12.59
2022-10-30T09:47:22.356Z,12.57
2022-10-30T09:50:04.870Z,12.50
2022-10-30T09:52:47.408Z,12.51
2022-10-30T09:55:29.199Z,12.55
2022-10-30T09:58:08.050Z,12.54
2022-10-30T10:00:41.030Z,12.48
2022-10-30T10:03:39.868Z,12.43
2022-10-30T10:06:38.811Z,12.30
2022-10-30T10:09:21.492Z,12.28
2022-10-30T10:11:56.597Z,12.39
2022-10-30T10:14:28.000Z,12.44
2022-10-30T10:16:58.887Z,12.46
2022-10-30T10:19:34.301Z,12.53
2022-10-30T10:22:09.651Z,12.57
2022-10-30T10:24:41.441Z,12.67
2022-10-30T10:27:19.727Z,12.67
2022-10-30T10:30:01.163Z,12.69
2022-10-30T10:32:52.158Z,12.61
2022-10-30T10:35:39.030Z,12.61
2022-10-30T10:38:20.419Z,12.62
2022-10-30T10:40:58.910Z,12.67
2022-10-30T10:43:45.855Z,12.78
2022-10-30T10:46:32.445Z,12.80
2022-10-30T10:49:13.599Z,12.81
2022-10-30T10:51:47.060Z,12.87
2022-10-30T10:54:21.126Z,12.87
2022-10-30T10:56:52.847Z,12.92
2022-10-30T10:59:25.000Z,12.96
2022-10-30T11:02:32.398Z,12.74
2022-10-30T11:05:07.389Z,13.03
2022-10-30T11:07:46.438Z,12.93
2022-10-30T11:10:19.139Z,12.88
2022-10-30T11:12:48.240Z,12.84
2022-10-30T11:15:27.889Z,12.86
2022-10-30T11:18:01.473Z,12.88
2022-10-30T11:20:36.380Z,12.90
2022-10-30T11:23:05.207Z,12.96
2022-10-30T11:25:38.221Z,13.00
2022-10-30T11:28:07.179Z,12.99
2022-10-30T11:30:35.749Z,12.99
2022-10-30T11:33:24.491Z,12.92
2022-10-30T11:35:53.467Z,12.85
2022-10-30T11:38:22.429Z,12.84
2022-10-30T11:40:54.719Z,12.90
2022-10-30T11:43:25.658Z,12.86
2022-10-30T11:45:54.973Z,12.87
2022-10-30T11:48:28.518Z,12.86
2022-10-30T11:51:01.047Z,12.81
2022-10-30T11:53:35.624Z,12.83
2022-10-30T11:56:16.718Z,12.85
2022-10-30T11:58:48.407Z,12.91
2022-10-30T12:01:25.171Z,12.95
2022-10-30T12:03:55.871Z,12.93
2022-10-30T12:06:30.337Z,12.95
2022-10-30T12:09:04.059Z,12.95
2022-10-30T12:11:35.759Z,12.98
2022-10-30T12:14:05.059Z,13.06
2022-10-30T12:16:35.149Z,13.08
2022-10-30T12:19:06.861Z,13.12
2022-10-30T12:21:40.699Z,13.13
2022-10-30T12:24:18.163Z,13.12
2022-10-30T12:26:51.732Z,13.06
2022-10-30T12:29:26.376Z,13.04
2022-10-30T12:32:06.550Z,13.01
2022-10-30T12:34:43.418Z,13.07
2022-10-30T12:37:18.986Z,13.14
2022-10-30T12:39:56.040Z,13.13
2022-10-30T12:42:26.737Z,13.06
2022-10-30T12:45:07.679Z,12.92
2022-10-30T12:47:43.152Z,12.97
2022-10-30T12:50:22.371Z,12.98
2022-10-30T12:52:57.651Z,12.93
2022-10-30T12:55:31.331Z,12.90
2022-10-30T12:58:09.411Z,12.88
2022-10-30T13:00:46.231Z,12.91
2022-10-30T13:03:26.365Z,12.99
2022-10-30T13:05:58.562Z,13.04
2022-10-30T13:08:33.535Z,13.07
2022-10-30T13:11:11.201Z,13.11
2022-10-30T13:13:44.726Z,13.08
2022-10-30T13:16:17.740Z,13.04
2022-10-30T13:18:46.279Z,13.03
2022-10-30T13:21:25.591Z,13.06
2022-10-30T13:24:00.142Z,13.08
2022-10-30T13:26:38.551Z,13.11
2022-10-30T13:29:19.469Z,13.07
2022-10-30T13:31:59.144Z,12.80
2022-10-30T13:34:39.194Z,12.83
2022-10-30T13:37:14.348Z,13.07
2022-10-30T13:39:49.948Z,13.12
2022-10-30T13:42:38.645Z,13.12
2022-10-30T13:45:28.035Z,13.12
2022-10-30T13:48:06.846Z,13.15
2022-10-30T13:50:56.029Z,13.12
2022-10-30T13:53:29.611Z,13.14
2022-10-30T13:55:59.540Z,13.16
2022-10-30T13:58:36.395Z,13.18
2022-10-30T14:01:15.415Z,13.28
2022-10-30T14:03:52.285Z,13.29
2022-10-30T14:06:31.549Z,13.30
2022-10-30T14:09:07.783Z,13.31
2022-10-30T14:11:36.355Z,13.30
2022-10-30T14:14:30.638Z,13.31
2022-10-30T14:17:13.689Z,13.32
2022-10-30T14:20:06.101Z,13.34
2022-10-30T14:22:37.854Z,13.34
2022-10-30T14:25:15.118Z,13.37
2022-10-30T14:27:44.299Z,13.36
2022-10-30T14:30:20.524Z,13.32
2022-10-30T14:32:53.912Z,13.27
2022-10-30T14:35:35.216Z,13.28
2022-10-30T14:38:32.214Z,13.29
2022-10-30T14:41:25.938Z,13.29
2022-10-30T14:44:07.499Z,13.27
2022-10-30T14:46:45.954Z,13.20
2022-10-30T14:49:42.701Z,13.13
2022-10-30T14:52:30.970Z,13.12
2022-10-30T14:55:23.089Z,13.13
2022-10-30T14:57:55.172Z,13.14
2022-10-30T15:00:39.845Z,13.11
2022-10-30T15:03:18.674Z,13.06
2022-10-30T15:05:53.783Z,13.09
2022-10-30T15:08:42.373Z,12.99
2022-10-30T15:11:28.349Z,12.87
2022-10-30T15:14:00.589Z,12.81
2022-10-30T15:16:31.366Z,12.79
2022-10-30T15:19:04.294Z,12.84
2022-10-30T15:21:42.399Z,12.83
2022-10-30T15:24:16.570Z,12.64
2022-10-30T15:26:49.248Z,12.90
2022-10-30T15:29:21.886Z,12.89
2022-10-30T15:32:00.475Z,12.84
2022-10-30T15:34:30.246Z,12.87
2022-10-30T15:37:00.555Z,12.89
2022-10-30T15:39:29.154Z,12.89
2022-10-30T15:42:00.534Z,12.95
2022-10-30T15:44:32.060Z,12.97
2022-10-30T15:47:03.669Z,12.95
2022-10-30T15:49:35.456Z,12.96
2022-10-30T15:52:16.774Z,12.95
2022-10-30T15:54:46.848Z,12.93
2022-10-30T16:00:22.988Z,12.92
2022-10-30T16:03:02.220Z,12.89
2022-10-30T16:05:31.589Z,12.88
2022-10-30T16:08:04.077Z,12.90
2022-10-30T16:10:35.624Z,12.87
2022-10-30T16:13:05.216Z,12.62
2022-10-30T16:15:40.090Z,12.81
2022-10-30T16:18:20.448Z,12.83
2022-10-30T16:20:53.601Z,12.77
2022-10-30T16:23:24.580Z,12.71
2022-10-30T16:25:57.089Z,12.66
2022-10-30T16:28:29.799Z,12.65
2022-10-30T16:31:01.258Z,12.61
2022-10-30T16:33:32.014Z,12.47
2022-10-30T16:36:03.599Z,12.46
2022-10-30T16:38:38.429Z,12.43
2022-10-30T16:41:07.977Z,12.48
2022-10-30T16:43:36.818Z,12.48
2022-10-30T16:46:38.609Z,12.50
2022-10-30T16:49:13.808Z,12.48
2022-10-30T16:51:42.640Z,12.50
2022-10-30T16:54:22.692Z,12.55
2022-10-30T16:56:54.288Z,12.56
2022-10-30T16:59:29.140Z,12.56
2022-10-30T17:02:06.143Z,12.54
2022-10-30T17:04:36.509Z,12.56
2022-10-30T17:07:18.917Z,12.53
2022-10-30T17:09:52.491Z,12.48
2022-10-30T17:12:23.133Z,12.15
2022-10-30T17:14:55.388Z,12.47
2022-10-30T17:17:31.392Z,12.47
2022-10-30T17:20:12.682Z,12.46
2022-10-30T17:22:41.388Z,12.45
2022-10-30T17:25:32.838Z,12.48
2022-10-30T17:28:01.557Z,12.43
2022-10-30T17:30:36.319Z,12.39
2022-10-30T17:33:25.121Z,12.40
2022-10-30T17:38:27.859Z,12.45
2022-10-30T17:40:58.090Z,12.46
2022-10-30T17:43:29.809Z,12.48
2022-10-30T17:45:59.430Z,12.48
2022-10-30T17:48:28.628Z,12.42
2022-10-30T17:50:57.458Z,12.43
2022-10-30T17:53:27.966Z,12.36
2022-10-30T17:56:02.851Z,12.44
2022-10-30T17:58:31.993Z,12.40
2022-10-30T18:01:00.859Z,12.37
2022-10-30T18:03:30.273Z,12.34
2022-10-30T18:06:02.136Z,12.32
2022-10-30T18:08:30.739Z,12.33
2022-10-30T18:11:00.686Z,12.30
2022-10-30T18:13:29.320Z,12.28
2022-10-30T18:15:59.653Z,12.30
2022-10-30T18:18:28.328Z,12.27
2022-10-30T18:20:56.867Z,12.26
2022-10-30T18:26:19.829Z,12.22
2022-10-30T18:28:48.669Z,12.00
2022-10-30T18:31:19.709Z,12.23
2022-10-30T18:33:48.538Z,12.19
2022-10-30T18:36:20.101Z,12.23
2022-10-30T18:38:48.798Z,12.26
2022-10-30T18:41:21.018Z,12.14
2022-10-30T18:43:49.770Z,12.33
2022-10-30T18:46:18.403Z,12.32
2022-10-30T18:48:47.600Z,12.27
2022-10-30T18:51:19.288Z,12.29
2022-10-30T18:53:52.646Z,12.28
2022-10-30T18:56:25.420Z,12.27
2022-10-30T18:58:58.764Z,12.01
2022-10-30T19:01:32.339Z,12.17
2022-10-30T19:04:04.679Z,12.13
2022-10-30T19:06:34.613Z,12.10
2022-10-30T19:09:03.527Z,12.13
2022-10-30T19:11:34.889Z,12.19
2022-10-30T19:14:07.107Z,12.19
2022-10-30T19:16:35.710Z,12.21
2022-10-30T19:19:04.486Z,12.20
2022-10-30T19:21:35.567Z,12.17
2022-10-30T19:24:04.275Z,12.15
2022-10-30T19:26:34.200Z,12.14
2022-10-30T19:29:02.771Z,12.17
2022-10-30T19:31:31.338Z,12.19
2022-10-30T19:33:59.999Z,12.25
2022-10-30T19:36:34.118Z,12.28
2022-10-30T19:39:08.605Z,12.21
2022-10-30T19:41:40.238Z,12.23
2022-10-30T19:44:08.991Z,12.30
2022-10-30T19:46:37.953Z,12.31
2022-10-30T19:49:17.670Z,12.32
2022-10-30T19:51:46.639Z,12.24
2022-10-30T19:54:15.377Z,12.31
2022-10-30T19:56:45.451Z,12.32
2022-10-30T19:59:16.163Z,12.25
2022-10-30T20:01:46.482Z,12.30
2022-10-30T20:04:15.228Z,12.08
2022-10-30T20:06:44.309Z,12.06
2022-10-30T20:09:13.896Z,12.32
2022-10-30T20:11:42.637Z,12.31
2022-10-30T20:14:12.636Z,12.32
2022-10-30T20:16:41.307Z,12.32
2022-10-30T20:19:28.770Z,12.33
2022-10-30T20:21:57.463Z,12.31
2022-10-30T20:24:26.059Z,12.20
2022-10-30T20:26:57.281Z,12.25
2022-10-30T20:29:27.418Z,12.20
2022-10-30T20:31:56.162Z,12.15
2022-10-30T20:34:25.442Z,12.10
2022-10-30T20:36:53.992Z,12.10
2022-10-30T20:39:22.497Z,12.14
2022-10-30T20:41:51.190Z,12.11
2022-10-30T20:44:19.723Z,12.12
2022-10-30T20:46:49.770Z,12.07
2022-10-30T20:49:18.636Z,12.11
2022-10-30T20:51:48.191Z,12.06
2022-10-30T20:54:16.925Z,12.06
2022-10-30T20:56:45.772Z,12.06
2022-10-30T20:59:14.345Z,12.10
2022-10-30T21:01:42.918Z,12.05
2022-10-30T21:04:13.080Z,12.07
2022-10-30T21:06:41.705Z,11.99
2022-10-30T21:09:10.386Z,12.07
2022-10-30T21:11:38.910Z,12.12
2022-10-30T21:14:08.041Z,12.10
2022-10-30T21:16:36.590Z,12.07
2022-10-30T21:19:05.181Z,12.06
2022-10-30T21:21:35.080Z,12.05
2022-10-30T21:24:03.692Z,12.01
2022-10-30T21:26:32.241Z,12.05
2022-10-30T21:29:00.861Z,12.02
2022-10-30T21:31:29.563Z,12.03
2022-10-30T21:33:58.432Z,12.01
2022-10-30T21:36:27.042Z,11.78
2022-10-30T21:38:59.979Z,12.02
2022-10-30T21:41:28.572Z,12.03
2022-10-30T21:43:58.952Z,12.07
2022-10-30T21:46:29.013Z,12.04
2022-10-30T21:48:58.102Z,12.02
2022-10-30T21:51:28.053Z,12.00
2022-10-30T21:53:58.194Z,12.00
2022-10-30T21:56:28.601Z,12.01
2022-10-30T21:58:59.760Z,11.85
2022-10-30T22:01:30.790Z,12.03
2022-10-30T22:04:00.341Z,12.03
2022-10-30T22:06:29.693Z,12.00
2022-10-30T22:09:00.037Z,11.95
2022-10-30T22:11:30.451Z,11.94
2022-10-30T22:14:00.819Z,12.02
2022-10-30T22:16:30.993Z,12.03
2022-10-30T22:18:59.762Z,11.90
2022-10-30T22:21:29.921Z,11.56
2022-10-30T22:24:01.051Z,11.82
2022-10-30T22:26:30.146Z,11.80
2022-10-30T22:29:00.958Z,11.80
2022-10-30T22:31:31.120Z,11.79
2022-10-30T22:34:00.778Z,11.71
2022-10-30T22:36:31.839Z,11.78
2022-10-30T22:39:03.863Z,11.84
2022-10-30T22:41:37.748Z,11.88
2022-10-30T22:44:09.148Z,11.91
2022-10-30T22:46:38.326Z,11.97
2022-10-30T22:49:07.699Z,11.96
2022-10-30T22:51:37.617Z,11.96
2022-10-30T22:54:10.902Z,11.98
2022-10-30T22:56:40.882Z,11.99
2022-10-30T22:59:12.710Z,12.00
2022-10-30T23:01:42.571Z,12.00
2022-10-30T23:04:12.590Z,11.94
2022-10-30T23:06:41.173Z,11.97
2022-10-30T23:09:16.723Z,11.99
2022-10-30T23:11:45.464Z,11.98
2022-10-30T23:14:15.722Z,11.90
2022-10-30T23:16:44.449Z,11.98
2022-10-30T23:19:13.091Z,11.98
2022-10-30T23:21:41.801Z,12.02
2022-10-30T23:24:11.860Z,12.02
2022-10-30T23:26:40.481Z,12.00
2022-10-30T23:29:08.972Z,11.97
2022-10-30T23:31:40.309Z,11.97
2022-10-30T23:34:11.811Z,12.00
2022-10-30T23:36:40.753Z,11.99
2022-10-30T23:39:14.203Z,12.01
2022-10-30T23:41:43.099Z,11.99
2022-10-30T23:44:14.645Z,11.99
2022-10-30T23:46:43.464Z,11.97
2022-10-30T23:49:12.138Z,11.98
2022-10-30T23:51:40.876Z,11.98
2022-10-30T23:54:11.767Z,11.98
2022-10-30T23:56:40.543Z,11.97
2022-10-30T23:59:10.532Z,11.98
